Time;durP1;ratioP1;P1;durP2;ratioP2;P2;SDS_P1;SDS_P2;PMS_P1;PMS_P2;Temp;Humidity;BMP_temperature;BMP_pressure;BME280_temperature;BME280_humidity;BME280_pressure;Samples;Min_cycle;Max_cycle;Signal;HPM_P1;HPM_P2
2024/03/22 00:04:54;;;;;;;50.83;30.17;;;;;;;;;;13045385;22;20422;-94
2024/03/22 00:09:56;;;;;;;54.60;31.90;;;;;;;;;;13050582;22;20357;-93
2024/03/22 00:14:58;;;;;;;55.53;32.00;;;;;;;;;;13049887;22;20989;-93
2024/03/22 00:20:02;;;;;;;53.30;30.42;;;;;;;;;;13050142;22;20361;-93
2024/03/22 00:25:06;;;;;;;52.60;30.40;;;;;;;;;;13049250;22;20381;-94
2024/03/22 00:30:09;;;;;;;54.05;29.60;;;;;;;;;;13049700;22;20353;-94
2024/03/22 00:35:12;;;;;;;53.50;30.30;;;;;;;;;;13049795;22;20921;-93
2024/03/22 00:40:14;;;;;;;53.85;31.58;;;;;;;;;;13048607;22;20360;-94
2024/03/22 00:45:17;;;;;;;54.23;30.37;;;;;;;;;;13049079;22;20399;-94
2024/03/22 00:50:20;;;;;;;53.83;30.77;;;;;;;;;;13051140;22;20365;-94
2024/03/22 00:55:22;;;;;;;52.90;29.90;;;;;;;;;;13048341;22;20381;-94
2024/03/22 01:00:25;;;;;;;50.97;28.35;;;;;;;;;;13048772;22;20391;-94
2024/03/22 01:05:28;;;;;;;47.85;28.20;;;;;;;;;;13049056;22;20369;-94
2024/03/22 01:10:31;;;;;;;48.70;28.60;;;;;;;;;;13048714;22;20446;-94
2024/03/22 01:15:33;;;;;;;51.53;28.75;;;;;;;;;;13049217;22;20377;-94
2024/03/22 01:20:36;;;;;;;45.45;27.23;;;;;;;;;;13048497;22;20418;-94
2024/03/22 01:25:38;;;;;;;46.97;27.45;;;;;;;;;;13047887;22;20368;-93
2024/03/22 01:30:40;;;;;;;48.00;27.48;;;;;;;;;;13049272;22;20411;-95
2024/03/22 01:35:44;;;;;;;44.77;25.67;;;;;;;;;;13045852;22;20373;-93
2024/03/22 01:40:46;;;;;;;43.87;25.40;;;;;;;;;;13043950;22;20418;-94
2024/03/22 01:45:49;;;;;;;43.97;24.80;;;;;;;;;;13048401;22;20906;-93
2024/03/22 01:50:53;;;;;;;43.40;24.20;;;;;;;;;;13047753;22;20426;-93
2024/03/22 01:55:55;;;;;;;43.97;24.67;;;;;;;;;;13048329;22;20376;-93
2024/03/22 02:00:58;;;;;;;39.92;23.40;;;;;;;;;;13049368;22;20399;-93
2024/03/22 02:06:01;;;;;;;39.67;22.95;;;;;;;;;;13048511;22;20361;-94
2024/03/22 02:11:03;;;;;;;39.17;22.10;;;;;;;;;;13051507;22;20385;-94
2024/03/22 02:16:06;;;;;;;41.45;21.80;;;;;;;;;;13069882;22;20463;-93
2024/03/22 02:21:10;;;;;;;38.35;21.20;;;;;;;;;;13047674;22;20411;-94
2024/03/22 02:26:13;;;;;;;37.33;21.15;;;;;;;;;;13069457;22;20361;-93
2024/03/22 02:31:16;;;;;;;37.05;21.65;;;;;;;;;;13048259;22;20485;-93
2024/03/22 02:36:18;;;;;;;35.55;20.65;;;;;;;;;;13048537;22;20376;-93
2024/03/22 02:41:22;;;;;;;34.67;19.85;;;;;;;;;;13048238;22;20395;-93
2024/03/22 02:46:24;;;;;;;34.77;20.17;;;;;;;;;;13070508;22;20357;-93
2024/03/22 02:51:26;;;;;;;33.85;20.35;;;;;;;;;;13052492;22;20372;-94
2024/03/22 02:56:30;;;;;;;37.17;19.48;;;;;;;;;;13050870;22;20381;-94
2024/03/22 03:01:32;;;;;;;32.58;19.20;;;;;;;;;;13051110;22;20361;-94
2024/03/22 03:06:34;;;;;;;30.65;18.88;;;;;;;;;;13051077;22;20357;-93
2024/03/22 03:11:38;;;;;;;33.17;18.77;;;;;;;;;;13050876;22;20399;-93
2024/03/22 03:16:40;;;;;;;33.30;19.42;;;;;;;;;;13072277;22;20372;-94
2024/03/22 03:21:42;;;;;;;32.50;18.63;;;;;;;;;;13049347;22;20929;-93
2024/03/22 03:26:46;;;;;;;31.20;17.88;;;;;;;;;;13050789;22;20356;-92
2024/03/22 03:31:48;;;;;;;33.33;18.38;;;;;;;;;;13052686;22;20365;-93
2024/03/22 03:36:50;;;;;;;30.17;16.80;;;;;;;;;;13050714;22;20381;-93
2024/03/22 03:41:54;;;;;;;29.50;16.23;;;;;;;;;;13072323;22;20357;-94
2024/03/22 03:46:56;;;;;;;28.60;15.63;;;;;;;;;;13050359;22;20368;-93
2024/03/22 03:51:58;;;;;;;27.58;14.77;;;;;;;;;;13049136;22;20821;-94
2024/03/22 03:57:02;;;;;;;25.30;14.82;;;;;;;;;;13051345;22;20442;-93
2024/03/22 04:02:04;;;;;;;24.20;13.77;;;;;;;;;;13050655;22;20357;-92
2024/03/22 04:07:06;;;;;;;23.98;14.35;;;;;;;;;;13023727;22;20411;-93
2024/03/22 04:12:10;;;;;;;25.17;13.70;;;;;;;;;;13050416;22;20895;-93
2024/03/22 04:17:12;;;;;;;22.40;13.43;;;;;;;;;;13049813;22;20411;-93
2024/03/22 04:22:14;;;;;;;22.42;12.70;;;;;;;;;;13049273;22;20364;-91
2024/03/22 04:27:18;;;;;;;21.25;12.68;;;;;;;;;;13048609;22;20395;-92
2024/03/22 04:32:20;;;;;;;23.15;12.45;;;;;;;;;;13069723;22;20360;-93
2024/03/22 04:37:22;;;;;;;23.67;12.23;;;;;;;;;;13048868;22;20384;-92
2024/03/22 04:42:26;;;;;;;21.40;12.33;;;;;;;;;;13070928;22;20369;-94
2024/03/22 04:47:28;;;;;;;21.55;11.93;;;;;;;;;;13049063;22;20368;-92
2024/03/22 04:52:30;;;;;;;19.13;10.70;;;;;;;;;;13049856;22;20832;-93
2024/03/22 04:57:33;;;;;;;17.33;10.50;;;;;;;;;;13049150;22;20411;-94
2024/03/22 05:02:36;;;;;;;18.00;10.37;;;;;;;;;;13048654;22;20486;-92
2024/03/22 05:07:38;;;;;;;16.42;8.85;;;;;;;;;;13048611;22;20361;-93
2024/03/22 05:12:41;;;;;;;14.32;9.35;;;;;;;;;;13048743;22;20406;-93
2024/03/22 05:17:44;;;;;;;14.63;9.40;;;;;;;;;;13048054;22;20415;-92
2024/03/22 05:22:46;;;;;;;17.10;9.17;;;;;;;;;;13069777;22;20365;-93
2024/03/22 05:27:50;;;;;;;15.17;9.00;;;;;;;;;;13047521;22;20361;-93
2024/03/22 05:32:52;;;;;;;16.85;9.27;;;;;;;;;;13048814;22;20361;-93
2024/03/22 05:37:54;;;;;;;15.07;9.00;;;;;;;;;;13048842;22;20380;-93
2024/03/22 05:42:58;;;;;;;15.37;9.07;;;;;;;;;;13047832;22;20403;-92
2024/03/22 05:48:00;;;;;;;14.27;8.77;;;;;;;;;;13069843;22;20961;-92
2024/03/22 05:53:02;;;;;;;14.27;8.73;;;;;;;;;;13045185;22;20369;-94
2024/03/22 05:58:05;;;;;;;14.67;9.20;;;;;;;;;;13046153;22;20453;-93
2024/03/22 06:03:08;;;;;;;14.82;8.98;;;;;;;;;;13045921;22;20473;-92
2024/03/22 06:08:10;;;;;;;14.00;8.53;;;;;;;;;;13045645;22;20361;-93
2024/03/22 06:13:13;;;;;;;13.77;8.43;;;;;;;;;;13069179;22;20901;-92
2024/03/22 06:18:16;;;;;;;15.15;8.65;;;;;;;;;;13046823;22;20388;-92
2024/03/22 06:23:18;;;;;;;14.43;7.88;;;;;;;;;;13051094;22;20426;-92
2024/03/22 06:28:22;;;;;;;12.77;8.38;;;;;;;;;;13051104;22;20372;-86
2024/03/22 06:33:24;;;;;;;14.90;7.75;;;;;;;;;;13050291;22;20828;-89
2024/03/22 06:38:26;;;;;;;12.40;8.07;;;;;;;;;;13049703;22;20380;-89
2024/03/22 06:43:30;;;;;;;12.57;7.87;;;;;;;;;;13046519;22;20365;-89
2024/03/22 06:48:32;;;;;;;12.40;7.45;;;;;;;;;;13071168;22;20829;-90
2024/03/22 06:53:34;;;;;;;11.37;7.10;;;;;;;;;;13065287;22;21109;-90
2024/03/22 06:58:38;;;;;;;11.17;7.57;;;;;;;;;;13045381;22;20400;-90
2024/03/22 07:03:40;;;;;;;11.90;7.80;;;;;;;;;;13050121;22;20361;-90
2024/03/22 07:08:42;;;;;;;11.73;7.55;;;;;;;;;;13049282;22;20446;-91
2024/03/22 07:13:46;;;;;;;12.13;7.63;;;;;;;;;;13049712;22;20361;-90
2024/03/22 07:18:48;;;;;;;12.73;8.00;;;;;;;;;;13050360;22;20934;-90
2024/03/22 07:23:51;;;;;;;12.60;8.07;;;;;;;;;;13050915;22;20361;-90
2024/03/22 07:28:55;;;;;;;11.13;7.43;;;;;;;;;;13050041;22;20685;-90
2024/03/22 07:33:57;;;;;;;10.93;7.47;;;;;;;;;;13054259;22;20365;-89
2024/03/22 07:39:00;;;;;;;8.60;5.57;;;;;;;;;;13050220;22;20385;-90
2024/03/22 07:44:05;;;;;;;9.98;6.45;;;;;;;;;;13050263;22;20361;-87
2024/03/22 07:49:07;;;;;;;10.68;5.50;;;;;;;;;;13072340;22;20391;-89
2024/03/22 07:54:09;;;;;;;6.35;4.95;;;;;;;;;;13050819;22;20399;-89
2024/03/22 07:59:12;;;;;;;6.53;4.60;;;;;;;;;;13049206;22;20380;-90
2024/03/22 08:04:14;;;;;;;8.25;5.07;;;;;;;;;;13050716;22;20833;-90
2024/03/22 08:09:17;;;;;;;7.70;5.47;;;;;;;;;;13050139;22;20360;-91
2024/03/22 08:14:21;;;;;;;10.35;6.70;;;;;;;;;;13047987;22;20414;-91
2024/03/22 08:19:24;;;;;;;9.98;7.13;;;;;;;;;;13048839;22;20441;-91
2024/03/22 08:24:26;;;;;;;12.40;7.07;;;;;;;;;;13049184;22;20407;-90
2024/03/22 08:29:29;;;;;;;10.50;6.53;;;;;;;;;;13067192;22;20410;-85
2024/03/22 08:34:32;;;;;;;9.30;6.20;;;;;;;;;;13066588;22;20438;-86
2024/03/22 08:39:34;;;;;;;8.20;6.10;;;;;;;;;;13044426;22;20415;-86
2024/03/22 08:44:37;;;;;;;8.63;6.43;;;;;;;;;;13045069;22;20361;-85
2024/03/22 08:49:41;;;;;;;9.37;6.10;;;;;;;;;;13042892;22;20416;-85
2024/03/22 08:54:43;;;;;;;8.77;5.17;;;;;;;;;;13037987;22;20717;-86
2024/03/22 08:59:47;;;;;;;12.20;7.53;;;;;;;;;;13040771;22;20381;-86
2024/03/22 09:04:49;;;;;;;8.77;5.20;;;;;;;;;;13042606;22;20678;-85
2024/03/22 09:09:52;;;;;;;7.97;5.23;;;;;;;;;;13060478;22;20364;-86
2024/03/22 09:14:55;;;;;;;7.13;4.60;;;;;;;;;;13036943;22;20391;-85
2024/03/22 09:19:57;;;;;;;5.38;3.85;;;;;;;;;;13038249;22;20373;-84
2024/03/22 09:25:00;;;;;;;5.97;4.30;;;;;;;;;;13038476;22;20426;-84
2024/03/22 09:30:04;;;;;;;7.10;4.10;;;;;;;;;;13039223;22;20365;-84
2024/03/22 09:35:07;;;;;;;6.18;4.00;;;;;;;;;;13040872;22;20690;-82
2024/03/22 09:40:10;;;;;;;5.43;4.28;;;;;;;;;;13037998;22;20384;-84
2024/03/22 09:45:18;;;;;;;5.78;3.70;;;;;;;;;;13037792;22;20395;-84
2024/03/22 09:50:21;;;;;;;4.53;3.17;;;;;;;;;;13060709;22;20361;-84
2024/03/22 09:55:24;;;;;;;7.17;4.33;;;;;;;;;;13062285;22;20749;-85
2024/03/22 10:00:27;;;;;;;3.03;1.98;;;;;;;;;;13060684;22;20469;-85
2024/03/22 10:05:30;;;;;;;4.18;1.50;;;;;;;;;;13039219;22;21051;-84
2024/03/22 10:10:32;;;;;;;1.90;1.20;;;;;;;;;;13043145;22;20825;-90
2024/03/22 10:15:35;;;;;;;1.10;1.00;;;;;;;;;;13044818;22;20430;-86
2024/03/22 10:20:38;;;;;;;9.40;2.20;;;;;;;;;;13067771;22;20372;-89
2024/03/22 10:25:40;;;;;;;3.40;2.03;;;;;;;;;;13047364;22;20402;-90
2024/03/22 10:30:45;;;;;;;4.07;2.33;;;;;;;;;;13046544;22;20349;-89
2024/03/22 10:35:47;;;;;;;3.73;2.43;;;;;;;;;;13042580;22;20365;-87
2024/03/22 10:40:50;;;;;;;3.85;2.25;;;;;;;;;;13064898;22;20450;-91
2024/03/22 10:46:00;;;;;;;4.13;2.00;;;;;;;;;;13044817;22;20426;-92
2024/03/22 10:51:02;;;;;;;2.97;1.90;;;;;;;;;;13044090;22;20353;-92
2024/03/22 10:56:06;;;;;;;5.00;2.78;;;;;;;;;;13062707;22;20365;-92
2024/03/22 11:01:22;;;;;;;5.10;2.83;;;;;;;;;;13045396;22;20385;-93
2024/03/22 11:06:27;;;;;;;4.00;3.00;;;;;;;;;;13046287;22;20376;-93
2024/03/22 11:11:31;;;;;;;3.78;2.95;;;;;;;;;;13047450;22;21103;-93
2024/03/22 11:16:37;;;;;;;3.30;2.38;;;;;;;;;;13049220;22;20361;-93
2024/03/22 11:21:39;;;;;;;3.40;2.58;;;;;;;;;;13047922;22;20369;-92
2024/03/22 11:26:41;;;;;;;3.00;2.00;;;;;;;;;;13049720;22;20365;-93
2024/03/22 11:31:45;;;;;;;2.33;1.80;;;;;;;;;;13048448;22;20662;-93
2024/03/22 11:36:49;;;;;;;2.17;1.83;;;;;;;;;;13061380;22;20353;-92
2024/03/22 11:41:52;;;;;;;2.60;1.90;;;;;;;;;;13052907;22;20747;-93
2024/03/22 11:46:55;;;;;;;4.28;2.10;;;;;;;;;;13047460;22;20414;-94
2024/03/22 11:51:58;;;;;;;6.25;3.38;;;;;;;;;;13072755;22;20365;-94
2024/03/22 11:57:00;;;;;;;4.63;2.30;;;;;;;;;;13050750;22;20972;-93
2024/03/22 12:02:06;;;;;;;3.60;2.47;;;;;;;;;;13049938;22;20381;-93
2024/03/22 12:07:11;;;;;;;3.17;2.57;;;;;;;;;;13071983;22;20906;-95
2024/03/22 12:12:14;;;;;;;3.50;2.30;;;;;;;;;;13048420;22;20353;-90
2024/03/22 12:17:17;;;;;;;3.25;2.03;;;;;;;;;;13039953;22;20369;-90
2024/03/22 12:22:20;;;;;;;4.15;3.15;;;;;;;;;;13042028;22;20380;-91
2024/03/22 12:27:22;;;;;;;3.63;2.53;;;;;;;;;;13037400;22;20369;-90
2024/03/22 12:32:26;;;;;;;3.25;2.20;;;;;;;;;;13039802;22;20703;-91
2024/03/22 12:37:28;;;;;;;3.13;2.10;;;;;;;;;;13035860;22;20376;-91
2024/03/22 12:42:30;;;;;;;2.27;1.93;;;;;;;;;;13040961;22;20384;-90
2024/03/22 12:47:34;;;;;;;3.70;2.30;;;;;;;;;;13039075;22;20380;-90
2024/03/22 12:52:36;;;;;;;3.10;2.17;;;;;;;;;;13037605;22;20376;-89
2024/03/22 12:57:38;;;;;;;3.25;2.20;;;;;;;;;;13036429;22;20460;-91
2024/03/22 13:02:42;;;;;;;2.58;1.90;;;;;;;;;;13035452;22;20910;-93
2024/03/22 13:07:44;;;;;;;2.70;1.80;;;;;;;;;;13038714;22;20841;-92
2024/03/22 13:12:47;;;;;;;2.85;2.10;;;;;;;;;;13039378;22;20905;-92
2024/03/22 13:17:52;;;;;;;2.78;2.33;;;;;;;;;;13043244;22;21258;-92
2024/03/22 13:22:54;;;;;;;2.92;2.15;;;;;;;;;;13046095;22;20426;-93
2024/03/22 13:27:56;;;;;;;3.38;2.20;;;;;;;;;;13038328;22;20368;-93
2024/03/22 13:33:00;;;;;;;4.07;2.30;;;;;;;;;;13039829;22;20434;-94
2024/03/22 13:38:02;;;;;;;3.63;2.60;;;;;;;;;;13039842;22;20377;-93
2024/03/22 13:43:05;;;;;;;5.22;2.83;;;;;;;;;;13042290;22;20380;-91
2024/03/22 13:48:12;;;;;;;3.80;2.60;;;;;;;;;;13049311;22;20403;-93
2024/03/22 13:53:15;;;;;;;5.05;3.40;;;;;;;;;;13038858;22;20399;-91
2024/03/22 13:58:18;;;;;;;4.50;2.90;;;;;;;;;;13038063;22;20368;-93
2024/03/22 14:03:21;;;;;;;4.55;3.50;;;;;;;;;;13037283;22;20449;-88
2024/03/22 14:08:24;;;;;;;5.93;4.03;;;;;;;;;;13034092;22;20357;-92
2024/03/22 14:13:26;;;;;;;6.27;4.73;;;;;;;;;;13007107;22;20376;-92
2024/03/22 14:18:29;;;;;;;8.70;5.15;;;;;;;;;;13032226;22;20380;-92
2024/03/22 14:23:34;;;;;;;7.72;4.47;;;;;;;;;;13032099;22;21286;-89
2024/03/22 14:28:36;;;;;;;6.10;4.60;;;;;;;;;;13033968;22;20361;-88
2024/03/22 14:33:41;;;;;;;5.95;4.43;;;;;;;;;;13037262;22;20381;-90
2024/03/22 14:38:43;;;;;;;7.72;5.25;;;;;;;;;;13040643;22;20868;-92
2024/03/22 14:43:45;;;;;;;9.20;5.22;;;;;;;;;;13041548;22;20451;-91
2024/03/22 14:48:49;;;;;;;8.10;5.50;;;;;;;;;;13041977;22;20868;-90
2024/03/22 14:53:51;;;;;;;8.27;6.20;;;;;;;;;;13039816;22;20446;-86
2024/03/22 14:58:53;;;;;;;9.93;6.63;;;;;;;;;;13035709;22;20894;-88
2024/03/22 15:03:57;;;;;;;8.07;5.72;;;;;;;;;;13040029;22;20373;-88
2024/03/22 15:09:02;;;;;;;8.43;5.00;;;;;;;;;;13039226;22;20380;-88
2024/03/22 15:14:04;;;;;;;7.40;5.40;;;;;;;;;;13037833;22;20372;-87
2024/03/22 15:19:08;;;;;;;12.48;5.55;;;;;;;;;;13038793;22;20374;-88
2024/03/22 15:24:10;;;;;;;8.82;5.85;;;;;;;;;;13037704;22;20431;-87
2024/03/22 15:29:12;;;;;;;7.87;5.87;;;;;;;;;;13039067;22;20454;-89
2024/03/22 15:34:15;;;;;;;9.65;5.60;;;;;;;;;;13039885;22;20380;-88
2024/03/22 15:39:19;;;;;;;9.35;5.25;;;;;;;;;;13039416;22;20407;-88
2024/03/22 15:44:21;;;;;;;7.07;4.90;;;;;;;;;;13050783;22;20368;-84
2024/03/22 15:49:25;;;;;;;8.25;4.82;;;;;;;;;;13049276;22;20369;-86
2024/03/22 15:54:27;;;;;;;9.93;5.00;;;;;;;;;;13035628;22;20369;-89
2024/03/22 15:59:29;;;;;;;8.77;5.47;;;;;;;;;;13036145;22;20381;-88
2024/03/22 16:04:32;;;;;;;9.43;5.80;;;;;;;;;;13040876;22;20426;-90
2024/03/22 16:09:36;;;;;;;7.90;5.60;;;;;;;;;;13062227;22;20386;-89
2024/03/22 16:14:39;;;;;;;9.50;5.80;;;;;;;;;;13037807;22;20369;-89
2024/03/22 16:19:43;;;;;;;9.98;5.88;;;;;;;;;;13040115;22;20389;-90
2024/03/22 16:24:45;;;;;;;10.57;6.03;;;;;;;;;;13039553;22;20849;-91
2024/03/22 16:29:47;;;;;;;10.27;6.30;;;;;;;;;;13039468;22;20411;-90
2024/03/22 16:34:51;;;;;;;12.50;7.68;;;;;;;;;;13040148;22;20446;-90
2024/03/22 16:39:53;;;;;;;10.55;7.15;;;;;;;;;;13040278;22;20849;-87
2024/03/22 16:44:55;;;;;;;11.50;7.07;;;;;;;;;;13037545;22;20373;-91
2024/03/22 16:49:59;;;;;;;11.97;6.50;;;;;;;;;;13040442;22;20414;-88
2024/03/22 16:55:01;;;;;;;10.18;6.50;;;;;;;;;;13039137;22;20368;-90
2024/03/22 17:00:10;;;;;;;10.77;6.75;;;;;;;;;;13045997;22;20388;-89
2024/03/22 17:05:14;;;;;;;10.18;6.55;;;;;;;;;;13039702;22;20373;-92
2024/03/22 17:10:16;;;;;;;15.17;7.70;;;;;;;;;;13040219;22;20744;-94
2024/03/22 17:15:19;;;;;;;10.77;7.10;;;;;;;;;;13042389;22;20361;-94
2024/03/22 17:20:22;;;;;;;12.45;7.32;;;;;;;;;;13038686;22;20381;-88
2024/03/22 17:25:24;;;;;;;17.58;9.38;;;;;;;;;;13035305;22;20438;-89
2024/03/22 17:30:27;;;;;;;16.15;9.40;;;;;;;;;;13038681;22;20377;-91
2024/03/22 17:35:31;;;;;;;13.05;8.15;;;;;;;;;;13039369;22;20388;-90
2024/03/22 17:40:34;;;;;;;13.95;8.02;;;;;;;;;;13045661;22;20687;-87
2024/03/22 17:45:36;;;;;;;16.73;10.50;;;;;;;;;;13035570;22;21221;-88
2024/03/22 17:50:40;;;;;;;16.40;10.10;;;;;;;;;;13040664;22;20411;-89
2024/03/22 17:55:42;;;;;;;20.00;11.77;;;;;;;;;;13038057;22;20407;-90
2024/03/22 18:00:44;;;;;;;22.40;11.93;;;;;;;;;;13037283;22;20384;-90
2024/03/22 18:05:48;;;;;;;15.93;10.47;;;;;;;;;;13036027;22;20436;-90
2024/03/22 18:10:50;;;;;;;16.38;9.38;;;;;;;;;;13035107;22;20403;-89
2024/03/22 18:15:52;;;;;;;15.90;10.00;;;;;;;;;;13060344;22;20421;-90
2024/03/22 18:20:56;;;;;;;16.60;10.38;;;;;;;;;;13039613;22;20380;-89
2024/03/22 18:25:59;;;;;;;19.55;11.32;;;;;;;;;;13037273;22;20442;-86
2024/03/22 18:31:01;;;;;;;16.75;10.88;;;;;;;;;;13027817;22;20380;-85
2024/03/22 18:36:05;;;;;;;17.45;11.02;;;;;;;;;;13037751;22;20756;-87
2024/03/22 18:41:07;;;;;;;21.20;12.15;;;;;;;;;;13039999;22;20605;-88
2024/03/22 18:46:10;;;;;;;19.13;12.82;;;;;;;;;;13041531;22;20437;-88
2024/03/22 18:51:14;;;;;;;20.33;12.98;;;;;;;;;;13048321;22;20361;-87
2024/03/22 18:56:16;;;;;;;23.17;13.27;;;;;;;;;;13050224;22;20369;-89
2024/03/22 20:36:03;;;;;;;36.58;19.25;;;;;;;;;;10596130;27;20379;-83
2024/03/22 20:41:06;;;;;;;27.92;17.98;;;;;;;;;;10559126;27;20524;-83
2024/03/22 20:46:12;;;;;;;31.52;18.92;;;;;;;;;;10551656;28;20485;-82
2024/03/22 20:51:18;;;;;;;29.85;18.60;;;;;;;;;;10547055;28;20411;-84
2024/03/22 20:56:25;;;;;;;28.63;19.77;;;;;;;;;;10553671;27;20512;-82
2024/03/22 21:01:31;;;;;;;34.97;22.23;;;;;;;;;;10543218;27;20495;-82
2024/03/22 21:06:36;;;;;;;36.43;22.90;;;;;;;;;;10541755;28;20502;-82
2024/03/22 21:11:43;;;;;;;34.30;21.90;;;;;;;;;;10559881;27;20984;-82
2024/03/22 21:16:49;;;;;;;34.50;21.50;;;;;;;;;;10559004;27;20449;-82
2024/03/22 21:21:55;;;;;;;35.28;20.48;;;;;;;;;;10545958;27;20517;-82
2024/03/22 21:27:03;;;;;;;30.95;21.27;;;;;;;;;;10549074;27;20492;-83
2024/03/22 21:32:09;;;;;;;33.10;20.60;;;;;;;;;;10545515;28;20435;-81
2024/03/22 21:37:14;;;;;;;34.00;20.98;;;;;;;;;;10549863;27;20429;-82
2024/03/22 21:42:21;;;;;;;31.98;20.88;;;;;;;;;;10559525;28;20503;-82
2024/03/22 21:47:27;;;;;;;34.97;21.80;;;;;;;;;;10526067;28;20457;-82
2024/03/22 21:52:33;;;;;;;33.30;22.05;;;;;;;;;;10533128;28;20527;-84
2024/03/22 21:57:39;;;;;;;35.30;22.70;;;;;;;;;;10523311;28;20467;-82
2024/03/22 22:02:45;;;;;;;35.22;22.90;;;;;;;;;;10528906;28;20455;-81
2024/03/22 22:07:51;;;;;;;37.05;22.48;;;;;;;;;;10526766;28;20473;-82
2024/03/22 22:12:57;;;;;;;36.20;21.87;;;;;;;;;;10527016;28;20518;-83
2024/03/22 22:18:02;;;;;;;37.53;23.20;;;;;;;;;;10513213;28;20460;-83
2024/03/22 22:23:09;;;;;;;37.85;23.02;;;;;;;;;;10521093;28;20487;-82
2024/03/22 22:28:15;;;;;;;38.33;23.35;;;;;;;;;;10513991;28;20442;-82
2024/03/22 22:33:21;;;;;;;39.05;23.45;;;;;;;;;;10517247;28;20463;-83
2024/03/22 22:38:33;;;;;;;41.40;25.47;;;;;;;;;;10525556;27;20432;-83
2024/03/22 22:43:39;;;;;;;39.58;26.38;;;;;;;;;;10511888;28;20451;-83
2024/03/22 22:48:45;;;;;;;45.53;27.53;;;;;;;;;;10515390;28;20402;-81
2024/03/22 22:53:51;;;;;;;42.30;25.05;;;;;;;;;;10512927;28;20503;-83
2024/03/22 22:58:57;;;;;;;35.70;23.37;;;;;;;;;;10514369;28;20569;-83
2024/03/22 23:04:05;;;;;;;34.42;23.75;;;;;;;;;;10521869;27;20483;-82
2024/03/22 23:09:11;;;;;;;38.30;23.20;;;;;;;;;;10516825;28;20420;-82
2024/03/22 23:14:18;;;;;;;33.40;21.65;;;;;;;;;;10516968;28;20861;-83
2024/03/22 23:19:23;;;;;;;35.55;21.85;;;;;;;;;;10518360;28;20486;-82
2024/03/22 23:24:29;;;;;;;38.43;22.57;;;;;;;;;;10524960;28;20437;-82
2024/03/22 23:29:35;;;;;;;36.72;22.20;;;;;;;;;;10520123;28;20394;-84
2024/03/22 23:34:41;;;;;;;35.55;22.77;;;;;;;;;;10533140;28;20481;-82
2024/03/22 23:39:48;;;;;;;33.73;22.73;;;;;;;;;;10523079;28;20967;-83
2024/03/22 23:44:54;;;;;;;34.93;22.00;;;;;;;;;;10529027;28;20943;-84
2024/03/22 23:50:00;;;;;;;32.97;22.20;;;;;;;;;;10525542;28;20821;-84
2024/03/22 23:55:05;;;;;;;34.58;21.88;;;;;;;;;;10539971;28;20507;-83
